createdAt,value
2023-02-19T00:01:28.729Z,76.50
2023-02-19T00:04:23.878Z,76.59
2023-02-19T00:06:58.846Z,76.28
2023-02-19T00:09:33.305Z,76.32
2023-02-19T00:12:25.380Z,76.44
2023-02-19T00:15:17.702Z,76.42
2023-02-19T00:18:09.857Z,76.35
2023-02-19T00:21:02.188Z,76.52
2023-02-19T00:23:56.092Z,76.33
2023-02-19T00:26:49.032Z,76.54
2023-02-19T00:29:41.186Z,76.59
2023-02-19T00:32:33.132Z,76.32
2023-02-19T00:35:25.436Z,76.43
2023-02-19T00:38:17.527Z,76.29
2023-02-19T00:41:27.644Z,76.04
2023-02-19T00:44:19.718Z,75.64
2023-02-19T00:47:11.879Z,75.73
2023-02-19T00:50:04.070Z,75.97
2023-02-19T00:52:56.165Z,76.03
2023-02-19T00:55:48.321Z,76.20
2023-02-19T00:58:30.485Z,76.43
2023-02-19T01:01:22.822Z,76.47
2023-02-19T01:04:06.475Z,76.51
2023-02-19T01:06:58.837Z,76.39
2023-02-19T01:09:51.074Z,76.56
2023-02-19T01:12:43.160Z,76.58
2023-02-19T01:15:36.841Z,76.36
2023-02-19T01:18:11.617Z,76.27
2023-02-19T01:21:08.624Z,76.36
2023-02-19T01:24:01.372Z,76.46
2023-02-19T01:26:53.514Z,76.77
2023-02-19T01:29:46.399Z,77.05
2023-02-19T01:32:38.652Z,77.26
2023-02-19T01:35:30.905Z,77.27
2023-02-19T01:38:23.104Z,77.42
2023-02-19T01:41:17.460Z,77.30
2023-02-19T01:44:24.053Z,77.47
2023-02-19T01:47:18.434Z,77.38
2023-02-19T01:50:10.909Z,77.35
2023-02-19T01:53:07.904Z,77.49
2023-02-19T01:56:02.174Z,77.55
2023-02-19T01:58:52.752Z,77.76
2023-02-19T02:01:44.962Z,77.87
2023-02-19T02:04:37.646Z,78.02
2023-02-19T02:07:47.293Z,78.04
2023-02-19T02:10:39.857Z,78.22
2023-02-19T02:13:33.568Z,78.15
2023-02-19T02:16:31.525Z,78.27
2023-02-19T02:19:49.380Z,78.24
2023-02-19T02:22:48.291Z,78.26
2023-02-19T02:26:08.348Z,78.32
2023-02-19T02:29:33.528Z,78.19
2023-02-19T02:32:09.643Z,78.15
2023-02-19T02:35:06.791Z,78.10
2023-02-19T02:38:05.954Z,78.21
2023-02-19T02:40:58.883Z,78.25
2023-02-19T02:43:50.975Z,78.38
2023-02-19T02:46:45.832Z,78.46
2023-02-19T02:49:58.278Z,78.57
2023-02-19T02:53:14.884Z,78.73
2023-02-19T02:56:07.830Z,78.85
2023-02-19T02:59:01.997Z,78.74
2023-02-19T03:02:14.836Z,78.69
2023-02-19T03:05:31.392Z,78.79
2023-02-19T03:08:28.309Z,78.64
2023-02-19T03:11:20.739Z,78.64
2023-02-19T03:14:45.668Z,78.62
2023-02-19T03:17:50.354Z,78.71
2023-02-19T03:20:44.282Z,78.78
2023-02-19T03:23:56.390Z,78.88
2023-02-19T03:26:40.100Z,79.02
2023-02-19T03:29:36.335Z,78.99
2023-02-19T03:32:32.362Z,78.76
2023-02-19T03:35:27.521Z,79.03
2023-02-19T03:38:23.262Z,78.91
2023-02-19T03:41:23.519Z,78.87
2023-02-19T03:44:21.573Z,78.61
2023-02-19T03:47:23.174Z,78.70
2023-02-19T03:50:21.246Z,78.86
2023-02-19T03:53:20.298Z,78.79
2023-02-19T03:56:17.142Z,78.78
2023-02-19T03:59:15.525Z,78.79
2023-02-19T04:02:12.649Z,79.05
2023-02-19T04:05:13.830Z,79.08
2023-02-19T04:08:14.295Z,79.02
2023-02-19T04:11:07.591Z,79.09
2023-02-19T04:14:06.814Z,78.93
2023-02-19T04:17:02.998Z,79.07
2023-02-19T04:19:57.888Z,78.76
2023-02-19T04:22:50.382Z,78.96
2023-02-19T04:25:45.321Z,79.11
2023-02-19T04:28:38.817Z,79.05
2023-02-19T04:31:35.265Z,79.02
2023-02-19T04:34:27.515Z,79.20
2023-02-19T04:37:19.701Z,79.11
2023-02-19T04:40:12.853Z,79.14
2023-02-19T04:43:04.966Z,79.03
2023-02-19T04:46:00.407Z,79.03
2023-02-19T04:48:52.550Z,79.10
2023-02-19T04:51:44.623Z,79.04
2023-02-19T04:54:36.814Z,78.99
2023-02-19T04:57:28.981Z,78.75
2023-02-19T05:00:21.296Z,78.81
2023-02-19T05:03:13.396Z,78.78
2023-02-19T05:06:07.843Z,78.77
2023-02-19T05:09:00.101Z,79.02
2023-02-19T05:11:37.593Z,79.24
2023-02-19T05:14:29.741Z,79.22
2023-02-19T05:17:22.063Z,79.08
2023-02-19T05:20:14.459Z,79.23
2023-02-19T05:23:06.558Z,79.24
2023-02-19T05:25:58.724Z,79.18
2023-02-19T05:28:52.817Z,79.25
2023-02-19T05:31:45.036Z,79.14
2023-02-19T05:34:37.484Z,79.18
2023-02-19T05:37:29.648Z,79.28
2023-02-19T05:40:21.795Z,79.34
2023-02-19T05:43:14.301Z,79.23
2023-02-19T05:46:06.586Z,79.44
2023-02-19T05:48:59.248Z,79.59
2023-02-19T05:51:54.044Z,79.49
2023-02-19T05:54:46.175Z,79.51
2023-02-19T05:57:43.759Z,79.49
2023-02-19T06:00:36.603Z,79.46
2023-02-19T06:03:28.727Z,79.39
2023-02-19T06:06:22.105Z,79.31
2023-02-19T06:09:14.908Z,79.06
2023-02-19T06:12:08.101Z,79.16
2023-02-19T06:14:46.126Z,79.24
2023-02-19T06:17:26.816Z,79.29
2023-02-19T06:20:19.148Z,79.48
2023-02-19T06:22:54.195Z,79.60
2023-02-19T06:25:46.295Z,79.73
2023-02-19T06:28:38.929Z,79.83
2023-02-19T06:31:31.104Z,79.76
2023-02-19T06:34:23.371Z,79.74
2023-02-19T06:37:06.109Z,79.74
2023-02-19T06:39:52.130Z,79.68
2023-02-19T06:42:44.358Z,79.50
2023-02-19T06:45:36.497Z,79.73
2023-02-19T06:48:29.369Z,79.76
2023-02-19T06:51:24.283Z,79.90
2023-02-19T06:54:16.423Z,80.19
2023-02-19T06:57:08.760Z,80.16
2023-02-19T07:00:00.850Z,80.18
2023-02-19T07:02:56.385Z,80.10
2023-02-19T07:05:48.521Z,80.26
2023-02-19T07:08:40.612Z,80.24
2023-02-19T07:11:34.576Z,80.05
2023-02-19T07:14:26.754Z,80.01
2023-02-19T07:17:07.549Z,80.08
2023-02-19T07:20:13.795Z,80.11
2023-02-19T07:23:05.855Z,80.30
2023-02-19T07:25:58.086Z,80.30
2023-02-19T07:28:51.605Z,80.71
2023-02-19T07:31:44.101Z,80.65
2023-02-19T07:34:36.438Z,80.49
2023-02-19T07:37:28.542Z,80.47
2023-02-19T07:40:20.927Z,80.57
2023-02-19T07:42:59.908Z,80.52
2023-02-19T07:45:52.399Z,80.30
2023-02-19T07:48:46.372Z,80.12
2023-02-19T07:51:39.889Z,80.49
2023-02-19T07:54:32.240Z,80.64
2023-02-19T07:57:24.617Z,80.60
2023-02-19T08:00:19.124Z,80.80
2023-02-19T08:03:11.431Z,80.69
2023-02-19T08:06:03.758Z,80.63
2023-02-19T08:08:57.430Z,80.79
2023-02-19T08:12:07.315Z,80.74
2023-02-19T08:14:59.571Z,80.57
2023-02-19T08:17:51.796Z,80.70
2023-02-19T08:20:44.081Z,80.71
2023-02-19T08:23:36.251Z,80.83
2023-02-19T08:26:28.373Z,80.80
2023-02-19T08:29:20.790Z,80.75
2023-02-19T08:32:13.060Z,80.88
2023-02-19T08:34:54.012Z,80.96
2023-02-19T08:37:46.077Z,80.95
2023-02-19T08:40:27.470Z,80.83
2023-02-19T08:43:20.206Z,80.70
2023-02-19T08:46:13.065Z,80.57
2023-02-19T08:49:05.306Z,80.89
2023-02-19T08:51:57.624Z,80.74
2023-02-19T08:54:49.853Z,80.73
2023-02-19T08:57:42.453Z,80.75
2023-02-19T09:00:34.753Z,80.71
2023-02-19T09:03:27.808Z,80.72
2023-02-19T09:06:15.910Z,80.59
2023-02-19T09:09:08.107Z,80.66
2023-02-19T09:12:00.528Z,80.51
2023-02-19T09:14:43.064Z,80.39
2023-02-19T09:17:35.120Z,80.36
2023-02-19T09:20:27.233Z,80.45
2023-02-19T09:23:19.319Z,80.16
2023-02-19T09:26:14.011Z,80.20
2023-02-19T09:29:06.103Z,80.13
2023-02-19T09:32:00.685Z,79.50
2023-02-19T09:34:52.838Z,79.55
2023-02-19T09:37:44.983Z,79.63
2023-02-19T09:40:38.639Z,79.66
2023-02-19T09:43:31.365Z,79.47
2023-02-19T09:46:25.155Z,79.58
2023-02-19T09:49:21.149Z,79.63
2023-02-19T09:52:19.787Z,79.31
2023-02-19T09:55:20.468Z,78.92
2023-02-19T09:58:25.752Z,78.90
2023-02-19T10:01:18.740Z,78.63
2023-02-19T10:04:12.816Z,77.96
2023-02-19T10:07:08.700Z,77.44
2023-02-19T10:09:40.890Z,77.03
2023-02-19T10:12:35.112Z,77.05
2023-02-19T10:15:25.190Z,76.82
2023-02-19T10:18:23.057Z,76.94
2023-02-19T10:21:20.677Z,76.91
2023-02-19T10:24:21.309Z,77.01
2023-02-19T10:26:56.425Z,76.68
2023-02-19T10:29:51.006Z,76.32
2023-02-19T10:33:01.459Z,76.30
2023-02-19T10:36:01.437Z,76.30
2023-02-19T10:38:55.351Z,76.50
2023-02-19T10:41:28.757Z,76.39
2023-02-19T10:44:27.298Z,75.96
2023-02-19T10:47:22.667Z,75.67
2023-02-19T10:50:25.974Z,75.64
2023-02-19T10:53:07.570Z,75.78
2023-02-19T10:56:11.503Z,75.73
2023-02-19T10:59:24.479Z,75.41
2023-02-19T11:02:03.255Z,75.38
2023-02-19T11:05:19.813Z,75.23
2023-02-19T11:08:24.676Z,75.04
2023-02-19T11:11:28.719Z,74.64
2023-02-19T11:14:24.233Z,74.36
2023-02-19T11:17:25.601Z,73.99
2023-02-19T11:20:21.296Z,73.94
2023-02-19T11:23:19.376Z,74.04
2023-02-19T11:26:20.992Z,74.15
2023-02-19T11:29:23.154Z,74.28
2023-02-19T11:32:30.937Z,74.34
2023-02-19T11:35:25.268Z,74.19
2023-02-19T11:38:19.330Z,74.07
2023-02-19T11:41:20.115Z,73.94
2023-02-19T11:44:25.825Z,74.12
2023-02-19T11:47:40.614Z,74.07
2023-02-19T11:50:46.974Z,73.76
2023-02-19T11:53:49.643Z,73.73
2023-02-19T11:56:45.254Z,73.54
2023-02-19T11:59:48.488Z,73.51
2023-02-19T12:03:00.473Z,73.18
2023-02-19T12:06:00.745Z,73.08
2023-02-19T12:09:14.656Z,73.32
2023-02-19T12:12:26.567Z,73.13
2023-02-19T12:15:42.036Z,73.48
2023-02-19T12:18:54.484Z,73.46
2023-02-19T12:22:02.625Z,73.09
2023-02-19T12:25:24.429Z,73.01
2023-02-19T12:28:36.429Z,72.93
2023-02-19T12:31:46.962Z,72.77
2023-02-19T12:34:53.075Z,72.86
2023-02-19T12:37:54.112Z,72.82
2023-02-19T12:40:58.779Z,72.98
2023-02-19T12:43:57.116Z,72.70
2023-02-19T12:46:54.924Z,72.76
2023-02-19T12:49:55.944Z,72.69
2023-02-19T12:52:53.596Z,72.37
2023-02-19T12:55:49.792Z,72.26
2023-02-19T12:58:45.120Z,72.25
2023-02-19T13:01:45.084Z,72.24
2023-02-19T13:04:46.341Z,71.95
2023-02-19T13:07:45.595Z,71.74
2023-02-19T13:10:42.073Z,71.76
2023-02-19T13:13:28.745Z,71.82
2023-02-19T13:16:23.432Z,72.16
2023-02-19T13:19:06.853Z,72.25
2023-02-19T13:22:24.461Z,71.95
2023-02-19T13:25:19.551Z,72.15
2023-02-19T13:28:25.939Z,72.10
2023-02-19T13:31:48.387Z,71.50
2023-02-19T13:34:55.796Z,71.43
2023-02-19T13:37:48.531Z,71.59
2023-02-19T13:40:44.194Z,71.68
2023-02-19T13:43:38.948Z,71.30
2023-02-19T13:46:39.529Z,70.95
2023-02-19T13:49:51.016Z,70.34
2023-02-19T13:52:44.335Z,70.44
2023-02-19T13:55:54.132Z,70.78
2023-02-19T13:59:13.701Z,70.96
2023-02-19T14:02:27.091Z,71.03
2023-02-19T14:06:01.646Z,70.61
2023-02-19T14:08:57.086Z,70.30
2023-02-19T14:12:21.553Z,70.25
2023-02-19T14:15:44.986Z,70.07
2023-02-19T14:18:47.833Z,70.19
2023-02-19T14:21:43.865Z,69.48
2023-02-19T14:24:38.176Z,69.54
2023-02-19T14:27:30.465Z,69.60
2023-02-19T14:30:24.879Z,69.57
2023-02-19T14:33:20.452Z,69.70
2023-02-19T14:36:23.320Z,69.96
2023-02-19T14:39:18.859Z,70.02
2023-02-19T14:42:21.457Z,69.86
2023-02-19T14:45:16.657Z,70.11
2023-02-19T14:47:53.310Z,70.14
2023-02-19T14:50:47.796Z,70.22
2023-02-19T14:53:44.390Z,70.27
2023-02-19T14:56:37.920Z,70.47
2023-02-19T14:59:31.674Z,70.51
2023-02-19T15:02:25.929Z,70.26
2023-02-19T15:05:17.903Z,70.21
2023-02-19T15:08:13.895Z,70.30
2023-02-19T15:11:12.532Z,69.92
2023-02-19T15:14:07.994Z,69.93
2023-02-19T15:17:04.141Z,70.14
2023-02-19T15:19:57.727Z,70.11
2023-02-19T15:22:51.958Z,70.11
2023-02-19T15:25:44.022Z,70.37
2023-02-19T15:28:36.789Z,70.40
2023-02-19T15:31:29.216Z,69.89
2023-02-19T15:34:04.842Z,69.66
2023-02-19T15:36:59.706Z,69.64
2023-02-19T15:39:53.612Z,69.46
2023-02-19T15:42:48.548Z,69.09
2023-02-19T15:45:46.592Z,69.14
2023-02-19T15:48:46.876Z,69.12
2023-02-19T15:51:43.917Z,69.16
2023-02-19T15:54:30.615Z,69.13
2023-02-19T15:57:21.781Z,69.18
2023-02-19T16:00:20.747Z,69.32
2023-02-19T16:03:20.044Z,69.40
2023-02-19T16:06:15.097Z,69.20
2023-02-19T16:09:08.635Z,69.16
2023-02-19T16:12:02.824Z,68.84
2023-02-19T16:14:54.052Z,68.79
2023-02-19T16:17:46.933Z,68.76
2023-02-19T16:20:31.244Z,69.03
2023-02-19T16:23:25.426Z,68.90
2023-02-19T16:26:02.903Z,68.72
2023-02-19T16:28:45.630Z,68.70
2023-02-19T16:31:37.945Z,68.52
2023-02-19T16:34:42.566Z,68.42
2023-02-19T16:37:58.888Z,68.69
2023-02-19T16:41:11.901Z,68.75
2023-02-19T16:44:24.215Z,68.64
2023-02-19T16:47:29.080Z,68.83
2023-02-19T16:50:24.520Z,68.97
2023-02-19T16:53:21.117Z,68.60
2023-02-19T16:56:18.561Z,68.79
2023-02-19T16:58:59.730Z,68.92
2023-02-19T17:01:51.796Z,69.15
2023-02-19T17:04:44.075Z,69.02
2023-02-19T17:07:36.241Z,68.95
2023-02-19T17:10:29.503Z,68.89
2023-02-19T17:13:21.745Z,68.88
2023-02-19T17:16:20.789Z,68.64
2023-02-19T17:19:15.962Z,68.32
2023-02-19T17:22:08.126Z,68.26
2023-02-19T17:25:00.899Z,68.07
2023-02-19T17:27:53.103Z,68.27
2023-02-19T17:30:45.272Z,68.39
2023-02-19T17:33:37.768Z,68.30
2023-02-19T17:36:32.266Z,68.39
2023-02-19T17:39:25.000Z,68.45
2023-02-19T17:42:17.120Z,68.59
2023-02-19T17:45:10.453Z,68.76
2023-02-19T17:48:02.554Z,68.78
2023-02-19T17:50:54.945Z,68.77
2023-02-19T17:53:47.451Z,69.07
2023-02-19T17:56:43.150Z,69.32
2023-02-19T17:59:35.322Z,69.42
2023-02-19T18:02:12.332Z,69.74
2023-02-19T18:05:05.108Z,69.61
2023-02-19T18:07:57.470Z,69.76
2023-02-19T18:10:40.288Z,69.70
2023-02-19T18:13:21.352Z,69.69
2023-02-19T18:16:15.567Z,69.47
2023-02-19T18:19:08.336Z,69.38
2023-02-19T18:22:00.623Z,69.52
2023-02-19T18:24:55.124Z,69.47
2023-02-19T18:27:35.286Z,69.49
2023-02-19T18:30:16.825Z,69.44
2023-02-19T18:32:52.811Z,69.61
2023-02-19T18:35:27.913Z,69.45
2023-02-19T18:38:20.391Z,69.24
2023-02-19T18:41:19.776Z,69.11
2023-02-19T18:44:12.225Z,69.01
2023-02-19T18:47:04.849Z,69.16
2023-02-19T18:49:58.578Z,69.21
2023-02-19T18:52:51.783Z,69.24
2023-02-19T18:55:43.929Z,69.08
2023-02-19T18:58:36.322Z,69.04
2023-02-19T19:01:28.379Z,69.17
2023-02-19T19:04:21.158Z,69.19
2023-02-19T19:07:13.284Z,69.41
2023-02-19T19:10:06.196Z,69.18
2023-02-19T19:12:43.419Z,69.21
2023-02-19T19:15:36.103Z,69.38
2023-02-19T19:21:11.181Z,69.47
2023-02-19T19:24:03.490Z,69.30
2023-02-19T19:26:48.100Z,69.30
2023-02-19T19:29:40.730Z,69.27
2023-02-19T19:32:33.399Z,69.61
2023-02-19T19:35:14.564Z,69.38
2023-02-19T19:38:08.228Z,69.13
2023-02-19T19:41:00.775Z,69.21
2023-02-19T19:43:53.116Z,69.39
2023-02-19T19:46:29.318Z,69.26
2023-02-19T19:49:23.824Z,69.28
2023-02-19T19:52:16.139Z,69.37
2023-02-19T19:55:09.805Z,69.51
2023-02-19T19:58:02.218Z,69.33
2023-02-19T20:00:55.010Z,69.71
2023-02-19T20:03:47.392Z,69.55
2023-02-19T20:06:39.528Z,69.55
2023-02-19T20:09:31.627Z,69.58
2023-02-19T20:12:07.455Z,69.71
2023-02-19T20:14:59.590Z,69.63
2023-02-19T20:17:51.731Z,69.82
2023-02-19T20:20:43.866Z,69.74
2023-02-19T20:23:35.924Z,70.29
2023-02-19T20:26:29.926Z,70.53
2023-02-19T20:29:22.157Z,70.60
2023-02-19T20:32:18.401Z,70.37
2023-02-19T20:35:11.075Z,70.35
2023-02-19T20:37:52.090Z,70.36
2023-02-19T20:40:44.375Z,70.23
2023-02-19T20:43:36.541Z,70.08
2023-02-19T20:46:17.502Z,70.07
2023-02-19T20:49:09.640Z,69.86
2023-02-19T20:51:54.957Z,69.57
2023-02-19T20:54:49.812Z,69.47
2023-02-19T20:57:42.305Z,69.61
2023-02-19T21:00:34.528Z,69.65
2023-02-19T21:03:27.111Z,69.54
2023-02-19T21:06:19.276Z,69.46
2023-02-19T21:09:11.450Z,69.76
2023-02-19T21:11:54.736Z,69.90
2023-02-19T21:14:46.833Z,69.92
2023-02-19T21:17:38.865Z,70.04
2023-02-19T21:20:30.936Z,70.18
2023-02-19T21:23:23.078Z,70.00
2023-02-19T21:26:15.139Z,70.33
2023-02-19T21:29:08.950Z,70.13
2023-02-19T21:32:01.157Z,70.11
2023-02-19T21:34:53.256Z,70.18
2023-02-19T21:37:45.753Z,70.25
2023-02-19T21:40:23.412Z,70.36
2023-02-19T21:43:15.544Z,70.37
2023-02-19T21:46:07.672Z,70.61
2023-02-19T21:48:59.903Z,70.86
2023-02-19T21:51:52.348Z,70.68
2023-02-19T21:54:44.445Z,70.53
2023-02-19T21:57:19.299Z,70.65
2023-02-19T22:00:13.849Z,70.65
2023-02-19T22:03:06.003Z,71.01
2023-02-19T22:05:58.149Z,70.96
2023-02-19T22:08:41.496Z,70.97
2023-02-19T22:11:33.665Z,71.04
2023-02-19T22:14:05.694Z,70.93
2023-02-19T22:16:57.879Z,71.17
2023-02-19T22:19:49.978Z,71.21
2023-02-19T22:22:42.729Z,71.14
2023-02-19T22:25:34.841Z,71.06
2023-02-19T22:28:26.941Z,71.16
2023-02-19T22:31:21.142Z,71.12
2023-02-19T22:34:11.853Z,71.25
2023-02-19T22:37:04.063Z,71.40
2023-02-19T22:39:56.424Z,71.45
2023-02-19T22:42:48.480Z,71.54
2023-02-19T22:45:24.296Z,71.54
2023-02-19T22:48:28.391Z,71.50
2023-02-19T22:51:23.959Z,71.69
2023-02-19T22:54:14.473Z,71.79
2023-02-19T22:57:07.127Z,71.95
2023-02-19T23:00:01.843Z,71.84
2023-02-19T23:02:53.937Z,71.72
2023-02-19T23:05:46.049Z,71.55
2023-02-19T23:08:38.113Z,71.67
2023-02-19T23:11:32.562Z,71.62
2023-02-19T23:14:24.663Z,71.67
2023-02-19T23:17:16.770Z,71.64
2023-02-19T23:20:10.768Z,71.58
2023-02-19T23:23:03.004Z,71.51
2023-02-19T23:25:55.067Z,71.56
2023-02-19T23:28:48.101Z,71.52
2023-02-19T23:31:40.277Z,71.39
2023-02-19T23:34:32.361Z,71.52
2023-02-19T23:37:24.504Z,71.36
2023-02-19T23:40:17.374Z,71.55
2023-02-19T23:42:52.232Z,71.35
2023-02-19T23:45:44.973Z,71.49
2023-02-19T23:48:22.087Z,71.26
2023-02-19T23:51:14.540Z,71.23
2023-02-19T23:54:06.872Z,71.42
2023-02-19T23:56:56.220Z,71.56
2023-02-19T23:59:49.090Z,71.61
